Time;durP1;ratioP1;P1;durP2;ratioP2;P2;SDS_P1;SDS_P2;PMS_P1;PMS_P2;Temp;Humidity;BMP_temperature;BMP_pressure;BME280_temperature;BME280_humidity;BME280_pressure;Samples;Min_cycle;Max_cycle;Signal;HPM_P1;HPM_P2
2021/04/06 00:00:24;;;;;;;24.77;17.83;;;;;;;;;;5139837;27;20030;-86
2021/04/06 00:02:53;;;;;;;26.90;17.40;;;;;;;;;;5140077;27;20018;-86
2021/04/06 00:05:20;;;;;;;27.80;18.23;;;;;;;;;;5140240;27;20177;-86
2021/04/06 00:07:48;;;;;;;28.65;18.95;;;;;;;;;;5138872;27;20035;-85
2021/04/06 00:10:18;;;;;;;25.17;18.80;;;;;;;;;;5139875;27;20023;-85
2021/04/06 00:12:46;;;;;;;25.90;18.40;;;;;;;;;;5139738;27;20062;-84
2021/04/06 00:15:14;;;;;;;29.35;19.73;;;;;;;;;;5139597;27;20088;-87
2021/04/06 00:17:43;;;;;;;27.50;17.80;;;;;;;;;;5139931;27;20030;-87
2021/04/06 00:20:10;;;;;;;25.60;18.35;;;;;;;;;;5139765;27;20072;-86
2021/04/06 00:22:37;;;;;;;27.65;18.75;;;;;;;;;;5139870;27;20066;-87
2021/04/06 00:25:05;;;;;;;30.08;19.00;;;;;;;;;;5140018;27;20022;-85
2021/04/06 00:27:33;;;;;;;29.48;20.88;;;;;;;;;;5139696;27;20304;-85
2021/04/06 00:30:04;;;;;;;26.45;19.58;;;;;;;;;;5138100;27;20218;-85
2021/04/06 00:32:30;;;;;;;30.17;20.97;;;;;;;;;;5138619;27;20023;-85
2021/04/06 00:35:01;;;;;;;28.63;21.70;;;;;;;;;;5139482;27;20283;-86
2021/04/06 00:37:28;;;;;;;28.52;19.70;;;;;;;;;;5137942;27;20053;-85
2021/04/06 00:40:03;;;;;;;27.98;19.45;;;;;;;;;;5138241;27;20026;-85
2021/04/06 00:42:30;;;;;;;32.28;21.25;;;;;;;;;;5139157;27;20110;-85
2021/04/06 00:45:02;;;;;;;29.38;19.88;;;;;;;;;;5139295;27;20019;-86
2021/04/06 00:47:29;;;;;;;26.42;18.80;;;;;;;;;;5139651;27;20031;-85
2021/04/06 00:49:56;;;;;;;26.90;19.38;;;;;;;;;;5139198;27;20033;-85
2021/04/06 00:52:22;;;;;;;28.40;19.13;;;;;;;;;;5139165;27;20023;-85
2021/04/06 00:55:07;;;;;;;26.02;19.00;;;;;;;;;;5139111;27;20076;-86
2021/04/06 00:57:33;;;;;;;27.95;19.75;;;;;;;;;;5137635;27;20038;-86
2021/04/06 01:00:28;;;;;;;28.50;19.42;;;;;;;;;;5139203;27;20026;-86
2021/04/06 01:02:58;;;;;;;28.95;18.73;;;;;;;;;;5075185;28;20070;-85
2021/04/06 01:05:24;;;;;;;26.67;17.98;;;;;;;;;;5059425;28;20020;-85
2021/04/06 01:07:52;;;;;;;28.08;19.17;;;;;;;;;;5076013;28;20041;-85
2021/04/06 01:10:18;;;;;;;30.38;19.15;;;;;;;;;;5076051;28;20032;-85
2021/04/06 01:12:45;;;;;;;29.60;19.52;;;;;;;;;;5059157;28;20036;-85
2021/04/06 01:15:11;;;;;;;30.10;20.98;;;;;;;;;;5075893;28;20349;-85
2021/04/06 01:17:37;;;;;;;34.38;22.30;;;;;;;;;;5059128;28;20349;-85
2021/04/06 01:20:06;;;;;;;34.72;22.60;;;;;;;;;;5076002;28;20028;-85
2021/04/06 01:22:33;;;;;;;34.17;21.00;;;;;;;;;;5076192;28;20529;-88
2021/04/06 01:24:59;;;;;;;32.53;21.58;;;;;;;;;;5075851;28;20067;-85
2021/04/06 01:27:25;;;;;;;33.22;21.70;;;;;;;;;;5075773;28;20410;-85
2021/04/06 01:29:54;;;;;;;32.60;20.25;;;;;;;;;;5058919;28;20047;-86
2021/04/06 01:32:21;;;;;;;34.03;20.40;;;;;;;;;;5075802;28;20051;-87
2021/04/06 01:34:47;;;;;;;29.60;20.15;;;;;;;;;;5075888;28;20024;-85
2021/04/06 01:37:13;;;;;;;26.25;18.70;;;;;;;;;;5058484;28;20056;-86
2021/04/06 01:39:40;;;;;;;26.33;18.70;;;;;;;;;;5110289;28;20027;-86
2021/04/06 01:42:09;;;;;;;30.45;19.67;;;;;;;;;;5137621;28;20027;-85
2021/04/06 01:44:37;;;;;;;32.92;21.27;;;;;;;;;;5138570;27;20023;-86
2021/04/06 01:47:04;;;;;;;32.05;21.42;;;;;;;;;;5137561;28;20032;-86
2021/04/06 01:49:31;;;;;;;31.17;20.95;;;;;;;;;;5138488;28;20023;-85
2021/04/06 01:51:57;;;;;;;33.10;21.27;;;;;;;;;;5138328;28;20034;-85
2021/04/06 01:54:25;;;;;;;35.47;21.33;;;;;;;;;;5137378;28;20027;-86
2021/04/06 01:57:00;;;;;;;32.15;20.80;;;;;;;;;;5138263;27;20043;-85
2021/04/06 01:59:33;;;;;;;37.88;22.13;;;;;;;;;;5137498;28;20065;-85
2021/04/06 02:02:00;;;;;;;34.40;22.35;;;;;;;;;;5138677;27;20027;-84
2021/04/06 02:04:28;;;;;;;37.83;23.45;;;;;;;;;;5137241;28;20027;-84
2021/04/06 02:06:55;;;;;;;39.00;23.77;;;;;;;;;;5138242;27;20027;-86
2021/04/06 02:09:21;;;;;;;31.08;21.73;;;;;;;;;;5138131;27;20068;-84
2021/04/06 02:11:48;;;;;;;32.65;21.33;;;;;;;;;;5142174;27;20027;-84
2021/04/06 02:14:15;;;;;;;30.30;20.02;;;;;;;;;;5141204;27;20023;-84
2021/04/06 02:16:47;;;;;;;32.00;20.23;;;;;;;;;;5140984;27;20428;-84
2021/04/06 02:19:23;;;;;;;27.90;18.77;;;;;;;;;;5141133;27;20178;-83
2021/04/06 02:21:50;;;;;;;29.88;20.85;;;;;;;;;;5142299;27;20370;-84
2021/04/06 02:24:25;;;;;;;30.10;20.55;;;;;;;;;;5142048;27;20020;-83
2021/04/06 02:27:21;;;;;;;35.35;23.02;;;;;;;;;;5141923;27;20059;-84
2021/04/06 02:29:49;;;;;;;35.50;24.02;;;;;;;;;;5078889;28;20060;-84
2021/04/06 02:32:16;;;;;;;38.08;23.80;;;;;;;;;;5078753;28;20287;-84
2021/04/06 02:34:44;;;;;;;36.28;23.60;;;;;;;;;;5078860;28;20032;-84
2021/04/06 02:37:19;;;;;;;32.30;21.70;;;;;;;;;;5078306;28;20056;-84
2021/04/06 02:39:45;;;;;;;34.35;21.90;;;;;;;;;;5078504;28;20082;-84
2021/04/06 02:42:22;;;;;;;33.83;22.85;;;;;;;;;;5078618;28;20372;-84
2021/04/06 02:44:48;;;;;;;34.25;22.30;;;;;;;;;;5078806;28;20410;-84
2021/04/06 02:47:16;;;;;;;33.55;21.63;;;;;;;;;;5078569;28;20475;-84
2021/04/06 02:49:42;;;;;;;37.67;22.67;;;;;;;;;;5078336;28;20029;-84
2021/04/06 02:52:08;;;;;;;33.25;22.30;;;;;;;;;;5078128;28;20021;-84
2021/04/06 02:54:34;;;;;;;35.78;21.92;;;;;;;;;;5061717;28;20532;-84
2021/04/06 02:57:00;;;;;;;31.38;20.55;;;;;;;;;;5061516;28;20028;-84
2021/04/06 02:59:26;;;;;;;32.47;21.23;;;;;;;;;;5078577;28;20057;-87
2021/04/06 03:01:58;;;;;;;30.13;20.75;;;;;;;;;;5078316;28;20017;-86
2021/04/06 03:04:27;;;;;;;30.00;19.60;;;;;;;;;;5061694;28;20035;-86
2021/04/06 03:06:57;;;;;;;30.88;19.45;;;;;;;;;;5129454;27;20035;-86
2021/04/06 03:09:25;;;;;;;29.85;20.40;;;;;;;;;;5141401;27;20023;-84
2021/04/06 03:11:53;;;;;;;34.97;20.83;;;;;;;;;;5141417;27;20050;-86
2021/04/06 03:14:22;;;;;;;29.27;20.00;;;;;;;;;;5141361;27;20046;-85
2021/04/06 03:16:50;;;;;;;32.72;20.38;;;;;;;;;;5140988;27;20025;-87
2021/04/06 03:19:17;;;;;;;31.50;18.85;;;;;;;;;;5140985;27;20011;-86
2021/04/06 03:21:43;;;;;;;29.50;19.33;;;;;;;;;;5139483;27;20058;-86
2021/04/06 03:24:09;;;;;;;29.92;19.15;;;;;;;;;;5139769;27;20031;-85
2021/04/06 03:26:36;;;;;;;30.88;19.80;;;;;;;;;;5141056;27;20015;-85
2021/04/06 03:29:03;;;;;;;33.42;20.25;;;;;;;;;;5139494;27;20034;-85
2021/04/06 03:31:29;;;;;;;30.23;18.98;;;;;;;;;;5139810;27;20396;-86
2021/04/06 03:33:57;;;;;;;30.13;17.98;;;;;;;;;;5139635;27;20019;-85
2021/04/06 03:36:27;;;;;;;28.83;18.15;;;;;;;;;;5139703;27;20419;-85
2021/04/06 03:38:54;;;;;;;24.70;17.85;;;;;;;;;;5140397;27;20039;-85
2021/04/06 03:41:22;;;;;;;24.38;16.00;;;;;;;;;;5140000;27;20106;-86
2021/04/06 03:43:48;;;;;;;25.63;14.98;;;;;;;;;;5140627;27;20027;-86
2021/04/06 03:46:21;;;;;;;22.17;14.70;;;;;;;;;;5140562;27;20020;-86
2021/04/06 03:48:47;;;;;;;21.83;14.43;;;;;;;;;;5140664;27;20045;-85
2021/04/06 03:51:24;;;;;;;22.75;13.98;;;;;;;;;;5140582;27;20034;-85
2021/04/06 03:53:51;;;;;;;21.83;14.77;;;;;;;;;;5139411;27;20068;-86
2021/04/06 03:56:17;;;;;;;22.00;12.45;;;;;;;;;;5140355;27;20023;-86
2021/04/06 04:01:46;;;;;;;18.85;12.13;;;;;;;;;;5140302;27;20034;-85
2021/04/06 04:04:14;;;;;;;21.25;11.93;;;;;;;;;;5139156;27;20033;-84
2021/04/06 04:06:40;;;;;;;18.33;11.40;;;;;;;;;;5138837;27;20028;-85
2021/04/06 04:09:06;;;;;;;17.52;11.35;;;;;;;;;;5140035;27;20098;-86
2021/04/06 04:11:32;;;;;;;21.30;12.93;;;;;;;;;;5140037;27;20019;-86
2021/04/06 04:13:58;;;;;;;20.08;13.25;;;;;;;;;;5140293;27;20019;-88
2021/04/06 04:16:24;;;;;;;23.27;14.07;;;;;;;;;;5139913;27;20047;-86
2021/04/06 04:18:51;;;;;;;26.92;16.70;;;;;;;;;;5140074;27;20026;-86
2021/04/06 04:21:17;;;;;;;25.15;14.77;;;;;;;;;;5138849;27;20063;-87
2021/04/06 04:23:43;;;;;;;25.98;14.13;;;;;;;;;;5140055;27;20023;-86
2021/04/06 04:26:09;;;;;;;24.35;15.27;;;;;;;;;;5140137;27;20098;-86
2021/04/06 04:31:39;;;;;;;24.35;14.95;;;;;;;;;;5139298;27;20427;-87
2021/04/06 04:34:05;;;;;;;28.08;15.90;;;;;;;;;;5139480;27;20023;-87
2021/04/06 04:36:31;;;;;;;27.70;15.95;;;;;;;;;;5139341;27;20023;-87
2021/04/06 04:38:57;;;;;;;37.58;18.38;;;;;;;;;;5139428;27;20063;-86
2021/04/06 04:41:24;;;;;;;35.10;19.33;;;;;;;;;;5138482;27;20024;-85
2021/04/06 04:43:50;;;;;;;31.20;17.95;;;;;;;;;;5139328;27;20023;-85
2021/04/06 04:46:16;;;;;;;32.05;15.57;;;;;;;;;;5139287;27;20022;-84
2021/04/06 04:48:42;;;;;;;18.92;12.90;;;;;;;;;;5138188;27;20381;-86
2021/04/06 04:51:08;;;;;;;41.88;14.80;;;;;;;;;;5139327;27;20325;-84
2021/04/06 04:53:34;;;;;;;21.30;11.35;;;;;;;;;;5139198;27;20401;-85
2021/04/06 04:56:00;;;;;;;29.27;9.07;;;;;;;;;;5139303;27;20354;-85
2021/04/06 04:58:26;;;;;;;19.20;5.85;;;;;;;;;;5138882;27;20301;-86
2021/04/06 05:00:54;;;;;;;24.73;3.25;;;;;;;;;;5138899;27;20042;-85
2021/04/06 05:03:20;;;;;;;12.20;2.35;;;;;;;;;;5138990;27;20035;-86
2021/04/06 05:05:46;;;;;;;14.57;1.90;;;;;;;;;;5138953;27;20015;-90
2021/04/06 05:08:12;;;;;;;19.83;1.60;;;;;;;;;;5138154;27;20423;-89
2021/04/06 05:10:38;;;;;;;14.50;2.85;;;;;;;;;;5138093;27;20107;-89
2021/04/06 05:13:04;;;;;;;14.00;1.30;;;;;;;;;;5138990;27;20033;-89
2021/04/06 05:15:30;;;;;;;15.13;1.50;;;;;;;;;;5137766;27;20027;-89
2021/04/06 05:17:57;;;;;;;20.52;1.60;;;;;;;;;;5137800;27;20035;-88
2021/04/06 05:20:23;;;;;;;17.48;1.30;;;;;;;;;;5138627;27;20022;-88
2021/04/06 05:22:50;;;;;;;6.68;1.20;;;;;;;;;;5139001;27;20079;-89
2021/04/06 05:25:16;;;;;;;12.23;1.20;;;;;;;;;;5139311;27;20023;-89
2021/04/06 05:27:42;;;;;;;14.48;1.63;;;;;;;;;;5139081;27;20169;-88
2021/04/06 05:30:08;;;;;;;13.07;1.00;;;;;;;;;;5137698;27;20030;-89
2021/04/06 05:32:34;;;;;;;8.60;1.38;;;;;;;;;;5137740;28;20031;-89
2021/04/06 05:35:00;;;;;;;8.93;1.67;;;;;;;;;;5137724;28;20409;-89
2021/04/06 05:37:26;;;;;;;8.43;1.20;;;;;;;;;;5137400;28;20075;-89
2021/04/06 05:39:52;;;;;;;9.23;1.25;;;;;;;;;;5137737;28;20019;-89
2021/04/06 05:42:19;;;;;;;4.32;0.80;;;;;;;;;;5138567;28;20409;-89
2021/04/06 05:44:46;;;;;;;4.80;1.10;;;;;;;;;;5141102;27;20427;-88
2021/04/06 05:47:14;;;;;;;6.32;1.00;;;;;;;;;;5143012;27;20031;-88
2021/04/06 05:49:40;;;;;;;6.68;1.13;;;;;;;;;;5142778;27;20023;-90
2021/04/06 05:52:06;;;;;;;4.43;1.23;;;;;;;;;;5142993;27;20027;-88
2021/04/06 05:54:32;;;;;;;9.18;1.83;;;;;;;;;;5142913;27;20027;-89
2021/04/06 05:56:58;;;;;;;8.60;1.70;;;;;;;;;;5141723;27;20027;-90
2021/04/06 05:59:24;;;;;;;7.88;1.38;;;;;;;;;;5141654;27;20042;-89
2021/04/06 06:01:50;;;;;;;6.50;1.65;;;;;;;;;;5142356;27;20027;-90
2021/04/06 06:04:18;;;;;;;6.95;1.60;;;;;;;;;;5142686;27;20027;-87
2021/04/06 06:06:45;;;;;;;6.53;2.17;;;;;;;;;;5141515;27;20031;-88
2021/04/06 06:09:12;;;;;;;11.40;2.40;;;;;;;;;;5141414;27;20016;-87
2021/04/06 06:11:58;;;;;;;3.88;2.08;;;;;;;;;;5142424;27;20417;-87
2021/04/06 06:14:28;;;;;;;10.05;2.55;;;;;;;;;;5142450;27;20027;-87
2021/04/06 06:16:54;;;;;;;20.30;6.07;;;;;;;;;;5141203;27;20030;-87
2021/04/06 06:19:20;;;;;;;21.42;8.23;;;;;;;;;;5142281;27;20027;-87
2021/04/06 06:21:50;;;;;;;19.15;6.03;;;;;;;;;;5142383;27;20350;-87
2021/04/06 06:24:23;;;;;;;12.52;2.25;;;;;;;;;;5142208;27;20309;-87
2021/04/06 06:26:49;;;;;;;13.02;2.70;;;;;;;;;;5141136;27;20023;-88
2021/04/06 06:29:18;;;;;;;38.40;11.10;;;;;;;;;;5141654;27;20023;-88
2021/04/06 06:31:55;;;;;;;20.15;8.43;;;;;;;;;;5141126;27;20034;-87
2021/04/06 06:34:23;;;;;;;11.15;4.43;;;;;;;;;;5141984;27;20110;-87
2021/04/06 06:37:09;;;;;;;17.77;7.85;;;;;;;;;;5140454;27;20051;-89
2021/04/06 06:39:36;;;;;;;7.30;1.50;;;;;;;;;;5141763;27;20064;-89
2021/04/06 06:42:04;;;;;;;6.43;1.95;;;;;;;;;;5141703;27;20401;-88
2021/04/06 06:44:32;;;;;;;10.57;2.10;;;;;;;;;;5141909;27;20019;-88
2021/04/06 06:47:09;;;;;;;10.30;2.70;;;;;;;;;;5141564;27;20016;-87
2021/04/06 06:49:37;;;;;;;9.82;1.40;;;;;;;;;;5141874;27;20408;-88
2021/04/06 06:52:22;;;;;;;7.68;3.17;;;;;;;;;;5141611;27;20019;-88
2021/04/06 06:54:49;;;;;;;6.50;1.98;;;;;;;;;;5141292;27;20026;-89
2021/04/06 06:57:16;;;;;;;4.57;1.70;;;;;;;;;;5140522;27;20313;-86
2021/04/06 06:59:43;;;;;;;8.77;1.83;;;;;;;;;;5141295;27;20019;-87
2021/04/06 07:02:28;;;;;;;9.25;1.60;;;;;;;;;;5141471;27;20313;-87
2021/04/06 07:05:08;;;;;;;7.80;1.40;;;;;;;;;;5141250;27;20027;-88
2021/04/06 07:07:52;;;;;;;3.22;1.75;;;;;;;;;;5141316;27;20126;-88
2021/04/06 07:10:19;;;;;;;3.83;1.20;;;;;;;;;;5141215;27;20035;-88
2021/04/06 07:12:46;;;;;;;4.22;1.23;;;;;;;;;;5140210;27;20294;-84
2021/04/06 07:15:13;;;;;;;5.05;1.27;;;;;;;;;;5141121;27;20028;-89
2021/04/06 07:17:42;;;;;;;5.90;1.42;;;;;;;;;;5141350;27;20106;-88
2021/04/06 07:20:09;;;;;;;5.72;1.45;;;;;;;;;;5141369;27;20046;-87
2021/04/06 07:22:36;;;;;;;5.30;1.55;;;;;;;;;;5140104;27;20114;-88
2021/04/06 07:25:02;;;;;;;5.60;1.73;;;;;;;;;;5141074;27;20072;-88
2021/04/06 07:27:29;;;;;;;6.53;3.10;;;;;;;;;;5139941;27;20023;-88
2021/04/06 07:29:55;;;;;;;4.38;1.70;;;;;;;;;;5139646;27;20028;-88
2021/04/06 07:32:22;;;;;;;3.22;1.45;;;;;;;;;;5141078;27;20027;-87
2021/04/06 07:34:50;;;;;;;6.28;1.40;;;;;;;;;;5139816;27;20027;-89
2021/04/06 07:37:16;;;;;;;6.10;1.88;;;;;;;;;;5139207;27;20325;-88
2021/04/06 07:39:42;;;;;;;8.35;1.85;;;;;;;;;;5140928;27;20015;-87
2021/04/06 07:42:09;;;;;;;11.63;3.30;;;;;;;;;;5139444;27;20033;-88
2021/04/06 07:44:35;;;;;;;4.05;1.45;;;;;;;;;;5140431;27;20016;-88
2021/04/06 07:47:02;;;;;;;7.18;1.90;;;;;;;;;;5140524;27;20057;-87
2021/04/06 07:49:28;;;;;;;5.60;2.15;;;;;;;;;;5139828;27;20031;-87
2021/04/06 07:52:02;;;;;;;3.30;1.52;;;;;;;;;;5139391;27;20034;-89
2021/04/06 07:54:33;;;;;;;4.40;1.67;;;;;;;;;;5140315;27;20399;-88
2021/04/06 07:57:00;;;;;;;2.22;1.38;;;;;;;;;;5140381;27;20064;-88
2021/04/06 07:59:26;;;;;;;4.35;1.77;;;;;;;;;;5140233;27;20455;-89
2021/04/06 08:01:52;;;;;;;2.22;1.35;;;;;;;;;;5140516;27;20019;-88
2021/04/06 08:04:19;;;;;;;4.30;1.38;;;;;;;;;;5139333;27;20423;-88
2021/04/06 08:06:50;;;;;;;2.63;1.55;;;;;;;;;;5137806;27;20038;-88
2021/04/06 08:09:35;;;;;;;2.42;1.40;;;;;;;;;;5139883;27;20023;-88
2021/04/06 08:12:06;;;;;;;3.83;1.92;;;;;;;;;;5140272;27;20030;-88
2021/04/06 08:14:34;;;;;;;5.57;2.92;;;;;;;;;;5140007;27;20064;-88
2021/04/06 08:17:20;;;;;;;6.00;2.30;;;;;;;;;;5139968;27;20027;-88
2021/04/06 08:19:50;;;;;;;3.78;2.05;;;;;;;;;;5076858;28;20056;-88
2021/04/06 08:22:23;;;;;;;4.35;1.42;;;;;;;;;;5076421;28;20049;-87
2021/04/06 08:24:49;;;;;;;4.63;1.73;;;;;;;;;;5060405;28;20032;-88
2021/04/06 08:27:34;;;;;;;4.65;2.10;;;;;;;;;;5077154;28;20024;-88
2021/04/06 08:30:18;;;;;;;5.13;2.13;;;;;;;;;;5076723;28;20028;-87
2021/04/06 08:33:00;;;;;;;4.45;1.70;;;;;;;;;;5076883;28;20055;-89
2021/04/06 08:35:52;;;;;;;4.35;1.80;;;;;;;;;;5076855;28;20057;-89
2021/04/06 08:38:21;;;;;;;5.47;2.03;;;;;;;;;;5076528;28;20044;-87
2021/04/06 08:40:49;;;;;;;3.05;1.58;;;;;;;;;;5059860;28;20020;-89
2021/04/06 08:43:19;;;;;;;9.50;3.22;;;;;;;;;;5076688;28;20489;-86
2021/04/06 08:45:54;;;;;;;7.93;2.80;;;;;;;;;;5076489;28;20056;-88
2021/04/06 08:48:39;;;;;;;17.40;4.13;;;;;;;;;;5076677;28;20044;-87
2021/04/06 08:51:21;;;;;;;7.13;2.83;;;;;;;;;;5059789;28;20452;-89
2021/04/06 08:53:48;;;;;;;16.77;7.13;;;;;;;;;;5076640;28;20055;-89
2021/04/06 08:56:15;;;;;;;11.50;4.38;;;;;;;;;;5091955;27;20027;-90
2021/04/06 08:58:41;;;;;;;14.43;4.82;;;;;;;;;;5139048;27;20033;-90
2021/04/06 09:01:07;;;;;;;14.30;3.88;;;;;;;;;;5139470;27;20409;-90
2021/04/06 09:03:34;;;;;;;58.00;30.85;;;;;;;;;;5138063;27;20015;-89
2021/04/06 09:06:10;;;;;;;41.58;22.25;;;;;;;;;;5138217;27;20031;-90
2021/04/06 09:08:46;;;;;;;35.17;19.77;;;;;;;;;;5138948;27;20022;-89
2021/04/06 09:11:13;;;;;;;41.28;28.52;;;;;;;;;;5138041;27;20412;-90
2021/04/06 09:13:40;;;;;;;26.08;15.63;;;;;;;;;;5138979;27;20031;-90
2021/04/06 09:16:06;;;;;;;52.92;34.15;;;;;;;;;;5138823;27;20424;-90
2021/04/06 09:18:38;;;;;;;34.55;21.98;;;;;;;;;;5138503;27;20034;-90
2021/04/06 09:21:06;;;;;;;113.50;75.55;;;;;;;;;;5138717;27;20026;-90
2021/04/06 09:23:33;;;;;;;43.85;31.15;;;;;;;;;;5138865;27;20050;-90
2021/04/06 09:26:00;;;;;;;52.33;37.08;;;;;;;;;;5137869;27;20023;-90
2021/04/06 09:28:26;;;;;;;36.58;25.75;;;;;;;;;;5138890;27;20032;-89
2021/04/06 09:30:52;;;;;;;18.35;13.68;;;;;;;;;;5138847;27;20027;-90
2021/04/06 09:33:20;;;;;;;27.30;16.38;;;;;;;;;;5138870;28;20030;-91
2021/04/06 09:35:50;;;;;;;43.35;20.85;;;;;;;;;;5138670;27;20335;-89
2021/04/06 09:38:23;;;;;;;33.28;13.88;;;;;;;;;;5137240;28;20046;-89
2021/04/06 09:40:50;;;;;;;56.00;25.70;;;;;;;;;;5138614;27;20096;-89
2021/04/06 09:43:17;;;;;;;27.98;12.73;;;;;;;;;;5138723;28;20035;-86
2021/04/06 09:45:43;;;;;;;27.67;14.05;;;;;;;;;;5138440;28;20127;-88
2021/04/06 09:48:14;;;;;;;27.30;14.30;;;;;;;;;;5137813;28;20071;-89
2021/04/06 09:50:40;;;;;;;16.58;7.43;;;;;;;;;;5138318;28;20024;-88
2021/04/06 09:53:18;;;;;;;9.05;3.88;;;;;;;;;;5137552;28;20034;-88
2021/04/06 09:55:47;;;;;;;6.60;2.55;;;;;;;;;;5138804;28;20027;-89
2021/04/06 09:58:14;;;;;;;17.40;7.05;;;;;;;;;;5138412;27;20031;-88
2021/04/06 10:00:40;;;;;;;9.15;5.80;;;;;;;;;;5137460;28;20102;-89
2021/04/06 10:03:10;;;;;;;5.60;2.60;;;;;;;;;;5137246;28;20417;-88
2021/04/06 10:05:42;;;;;;;5.75;2.70;;;;;;;;;;5138763;28;20023;-84
2021/04/06 10:08:09;;;;;;;7.57;2.40;;;;;;;;;;5138385;27;20431;-88
2021/04/06 10:10:35;;;;;;;8.30;2.30;;;;;;;;;;5138351;28;20076;-89
2021/04/06 10:13:02;;;;;;;5.65;2.03;;;;;;;;;;5137429;28;20374;-89
2021/04/06 10:15:29;;;;;;;2.17;1.63;;;;;;;;;;5138488;28;20024;-89
2021/04/06 10:17:55;;;;;;;2.97;1.10;;;;;;;;;;5138311;28;20071;-89
2021/04/06 10:20:25;;;;;;;7.88;1.38;;;;;;;;;;5137131;28;20023;-88
2021/04/06 10:22:59;;;;;;;3.72;1.33;;;;;;;;;;5138366;28;20019;-89
2021/04/06 10:25:26;;;;;;;4.78;1.33;;;;;;;;;;5138355;27;20148;-89
2021/04/06 10:28:00;;;;;;;5.53;2.28;;;;;;;;;;5138202;28;20045;-88
2021/04/06 10:30:40;;;;;;;6.38;1.80;;;;;;;;;;5139254;27;20023;-89
2021/04/06 10:33:16;;;;;;;9.15;3.30;;;;;;;;;;5141847;27;20023;-88
2021/04/06 10:35:45;;;;;;;4.07;1.60;;;;;;;;;;5142125;27;20027;-90
2021/04/06 10:38:20;;;;;;;4.07;2.00;;;;;;;;;;5140542;27;20047;-89
2021/04/06 10:40:47;;;;;;;3.53;1.83;;;;;;;;;;5140972;27;20028;-90
2021/04/06 10:43:14;;;;;;;11.13;5.15;;;;;;;;;;5141714;27;20068;-90
2021/04/06 10:45:48;;;;;;;30.48;8.63;;;;;;;;;;5141858;27;20072;-88
2021/04/06 10:48:18;;;;;;;26.80;7.53;;;;;;;;;;5140805;27;20026;-89
2021/04/06 10:50:47;;;;;;;17.70;4.63;;;;;;;;;;5141731;27;20110;-89
2021/04/06 10:53:17;;;;;;;24.17;7.43;;;;;;;;;;5141506;27;20031;-89
2021/04/06 10:55:44;;;;;;;16.77;4.80;;;;;;;;;;5141410;27;20068;-88
2021/04/06 10:58:10;;;;;;;10.90;3.70;;;;;;;;;;5141399;27;20024;-89
2021/04/06 11:00:37;;;;;;;36.25;8.00;;;;;;;;;;5140640;27;20424;-88
2021/04/06 11:03:09;;;;;;;43.85;10.02;;;;;;;;;;5141273;27;20026;-89
2021/04/06 11:05:36;;;;;;;30.08;7.40;;;;;;;;;;5141711;27;20060;-89
2021/04/06 11:08:22;;;;;;;33.30;6.47;;;;;;;;;;5141336;27;20423;-88
2021/04/06 11:10:49;;;;;;;6.75;2.45;;;;;;;;;;5140192;27;20038;-88
2021/04/06 11:13:15;;;;;;;5.28;2.13;;;;;;;;;;5140343;27;20027;-88
2021/04/06 11:15:41;;;;;;;12.27;3.38;;;;;;;;;;5141266;27;20023;-89
2021/04/06 11:18:08;;;;;;;6.72;2.17;;;;;;;;;;5141090;27;20378;-88
2021/04/06 11:20:34;;;;;;;27.50;6.38;;;;;;;;;;5141018;27;20054;-89
2021/04/06 11:23:00;;;;;;;11.20;3.90;;;;;;;;;;5139846;27;20031;-88
2021/04/06 11:25:26;;;;;;;18.90;5.85;;;;;;;;;;5140777;27;20019;-88
2021/04/06 11:27:58;;;;;;;11.70;3.50;;;;;;;;;;5140910;27;20027;-88
2021/04/06 11:30:24;;;;;;;9.30;3.63;;;;;;;;;;5140945;27;20023;-90
2021/04/06 11:32:50;;;;;;;10.48;3.67;;;;;;;;;;5140902;27;20262;-89
2021/04/06 11:35:16;;;;;;;10.18;3.47;;;;;;;;;;5140763;27;20023;-89
2021/04/06 11:37:43;;;;;;;9.60;3.80;;;;;;;;;;5140449;27;20070;-90
2021/04/06 11:40:09;;;;;;;12.18;4.70;;;;;;;;;;5139618;27;20031;-89
2021/04/06 11:42:35;;;;;;;5.13;2.88;;;;;;;;;;5139788;27;20098;-89
2021/04/06 11:45:03;;;;;;;6.25;2.30;;;;;;;;;;5122194;27;20065;-88
2021/04/06 11:47:31;;;;;;;6.38;2.50;;;;;;;;;;5139682;27;20134;-88
2021/04/06 11:49:57;;;;;;;5.78;2.40;;;;;;;;;;5140904;27;20019;-88
2021/04/06 11:52:23;;;;;;;7.07;2.38;;;;;;;;;;5140417;27;20028;-89
2021/04/06 11:54:49;;;;;;;4.70;2.38;;;;;;;;;;5140602;27;20154;-89
2021/04/06 11:57:15;;;;;;;5.13;2.50;;;;;;;;;;5140347;27;20031;-89
2021/04/06 11:59:41;;;;;;;6.50;2.70;;;;;;;;;;5140051;27;20404;-88
2021/04/06 12:02:08;;;;;;;7.80;3.13;;;;;;;;;;5140422;27;20068;-88
2021/04/06 12:04:34;;;;;;;9.18;4.60;;;;;;;;;;5140359;27;20068;-88
2021/04/06 12:07:00;;;;;;;20.10;9.52;;;;;;;;;;5140240;27;20332;-88
2021/04/06 12:09:26;;;;;;;10.65;5.03;;;;;;;;;;5140343;27;20027;-88
2021/04/06 12:11:52;;;;;;;6.68;3.05;;;;;;;;;;5139196;27;20026;-89
2021/04/06 12:14:18;;;;;;;8.55;3.03;;;;;;;;;;5139114;27;20028;-89
2021/04/06 12:16:45;;;;;;;6.13;2.80;;;;;;;;;;5139999;27;20294;-88
2021/04/06 12:19:11;;;;;;;7.15;3.20;;;;;;;;;;5138731;27;20058;-89
2021/04/06 12:21:37;;;;;;;64.90;13.45;;;;;;;;;;5121099;27;20038;-88
2021/04/06 12:24:03;;;;;;;53.22;11.48;;;;;;;;;;5139769;27;20071;-89
2021/04/06 12:26:29;;;;;;;25.42;6.00;;;;;;;;;;5138888;27;20409;-89
2021/04/06 12:28:55;;;;;;;19.33;5.63;;;;;;;;;;5139981;27;20027;-89
2021/04/06 12:31:21;;;;;;;49.30;11.95;;;;;;;;;;5138755;27;20019;-89
2021/04/06 12:33:47;;;;;;;16.27;4.40;;;;;;;;;;5139058;27;20405;-88
2021/04/06 12:36:14;;;;;;;40.90;9.63;;;;;;;;;;5139569;27;20020;-88
2021/04/06 12:38:40;;;;;;;38.42;10.32;;;;;;;;;;5139023;27;20070;-89
2021/04/06 12:41:06;;;;;;;19.40;4.95;;;;;;;;;;5139438;27;20023;-88
2021/04/06 12:43:34;;;;;;;31.70;7.05;;;;;;;;;;5138512;27;20363;-88
2021/04/06 12:46:00;;;;;;;18.23;6.25;;;;;;;;;;5139525;27;20024;-88
2021/04/06 12:48:26;;;;;;;32.30;8.07;;;;;;;;;;5138371;27;20027;-88
2021/04/06 12:50:53;;;;;;;24.88;7.25;;;;;;;;;;5139332;27;20414;-88
2021/04/06 12:53:19;;;;;;;10.88;3.65;;;;;;;;;;5138529;27;20023;-87
2021/04/06 12:55:45;;;;;;;6.22;2.97;;;;;;;;;;5139543;27;20023;-88
2021/04/06 12:58:11;;;;;;;9.02;4.50;;;;;;;;;;5138408;27;20019;-88
2021/04/06 13:00:37;;;;;;;4.53;2.65;;;;;;;;;;5139331;27;20023;-88
2021/04/06 13:03:03;;;;;;;6.57;2.30;;;;;;;;;;5139163;27;20092;-88
2021/04/06 13:05:30;;;;;;;7.85;3.58;;;;;;;;;;5138142;27;20019;-88
2021/04/06 13:07:58;;;;;;;4.93;2.78;;;;;;;;;;5138843;27;20047;-88
2021/04/06 13:10:24;;;;;;;4.93;2.83;;;;;;;;;;5139041;27;20039;-88
2021/04/06 13:12:52;;;;;;;8.77;2.88;;;;;;;;;;5139097;27;20028;-88
2021/04/06 13:15:38;;;;;;;12.93;6.40;;;;;;;;;;5139357;27;20421;-89
2021/04/06 13:18:04;;;;;;;7.50;3.35;;;;;;;;;;5137522;27;20042;-88
2021/04/06 13:20:30;;;;;;;9.25;4.32;;;;;;;;;;5138693;27;20122;-88
2021/04/06 13:22:57;;;;;;;10.88;5.13;;;;;;;;;;5137913;27;20076;-88
2021/04/06 13:25:23;;;;;;;7.45;3.17;;;;;;;;;;5138939;27;20274;-89
2021/04/06 13:27:49;;;;;;;20.88;7.20;;;;;;;;;;5138706;27;20023;-88
2021/04/06 13:30:17;;;;;;;17.15;6.57;;;;;;;;;;5138670;27;20416;-89
2021/04/06 13:32:43;;;;;;;15.18;5.47;;;;;;;;;;5138773;27;20114;-90
2021/04/06 13:35:10;;;;;;;7.40;3.20;;;;;;;;;;5137901;28;20412;-88
2021/04/06 13:37:37;;;;;;;10.63;4.25;;;;;;;;;;5138494;28;20043;-88
2021/04/06 13:40:03;;;;;;;11.77;5.38;;;;;;;;;;5138758;28;20039;-89
2021/04/06 13:42:34;;;;;;;15.65;5.95;;;;;;;;;;5137969;28;20054;-88
2021/04/06 13:45:00;;;;;;;8.60;3.90;;;;;;;;;;5137657;28;20023;-88
2021/04/06 13:47:26;;;;;;;11.15;4.70;;;;;;;;;;5138618;28;20027;-88
2021/04/06 13:49:52;;;;;;;14.35;5.68;;;;;;;;;;5137581;28;20050;-89
2021/04/06 13:52:18;;;;;;;14.43;5.72;;;;;;;;;;5138484;28;20032;-89
2021/04/06 13:54:44;;;;;;;10.32;5.10;;;;;;;;;;5138613;28;20428;-89
2021/04/06 13:57:10;;;;;;;9.98;4.32;;;;;;;;;;5137564;28;20065;-88
2021/04/06 13:59:36;;;;;;;8.93;4.07;;;;;;;;;;5137390;28;20015;-88
2021/04/06 14:02:02;;;;;;;7.68;3.95;;;;;;;;;;5137617;28;20058;-89
2021/04/06 14:04:29;;;;;;;7.30;3.75;;;;;;;;;;5139718;27;20015;-88
2021/04/06 14:06:55;;;;;;;47.67;18.42;;;;;;;;;;5142476;27;20023;-89
2021/04/06 14:21:02;;;;;;;34.97;10.57;;;;;;;;;;5136226;27;20367;-91
2021/04/06 14:23:28;;;;;;;21.95;9.40;;;;;;;;;;5118065;28;20030;-89
2021/04/06 14:25:56;;;;;;;19.02;6.53;;;;;;;;;;5100335;28;20061;-88
2021/04/06 14:28:22;;;;;;;15.82;5.95;;;;;;;;;;5135774;28;20027;-90
2021/04/06 14:30:49;;;;;;;9.32;3.60;;;;;;;;;;5135602;28;20166;-88
2021/04/06 14:33:18;;;;;;;21.98;8.18;;;;;;;;;;5135677;28;20061;-87
2021/04/06 14:35:45;;;;;;;30.52;11.75;;;;;;;;;;5135822;28;20030;-87
2021/04/06 14:38:11;;;;;;;19.30;8.63;;;;;;;;;;5135458;28;20025;-87
2021/04/06 14:40:38;;;;;;;16.40;5.88;;;;;;;;;;5135514;28;20087;-87
2021/04/06 14:43:07;;;;;;;16.77;6.72;;;;;;;;;;5135516;28;20019;-88
2021/04/06 14:45:34;;;;;;;30.83;9.30;;;;;;;;;;5135476;28;20026;-87
2021/04/06 14:48:00;;;;;;;28.92;7.85;;;;;;;;;;5135345;28;20040;-87
2021/04/06 14:50:26;;;;;;;24.35;6.90;;;;;;;;;;5117547;28;20144;-87
2021/04/06 14:52:52;;;;;;;29.05;6.95;;;;;;;;;;5116749;28;20040;-87